createdAt,value
2018-06-04T00:01:54.262Z,20.00
2018-06-04T00:04:22.602Z,19.93
2018-06-04T00:06:50.933Z,19.95
2018-06-04T00:09:19.337Z,19.89
2018-06-04T00:11:47.680Z,19.87
2018-06-04T00:14:15.431Z,19.86
2018-06-04T00:16:43.771Z,19.85
2018-06-04T00:19:12.106Z,19.86
2018-06-04T00:21:40.581Z,19.77
2018-06-04T00:24:09.368Z,19.77
2018-06-04T00:26:37.130Z,19.72
2018-06-04T00:29:06.047Z,19.78
2018-06-04T00:31:34.378Z,19.82
2018-06-04T00:34:02.129Z,19.81
2018-06-04T00:36:31.055Z,19.76
2018-06-04T00:38:59.379Z,19.69
2018-06-04T00:41:27.717Z,19.69
2018-06-04T00:43:57.067Z,19.68
2018-06-04T00:46:24.822Z,19.69
2018-06-04T00:48:53.732Z,19.68
2018-06-04T00:51:22.375Z,19.68
2018-06-04T00:53:50.700Z,19.69
2018-06-04T00:56:18.457Z,19.63
2018-06-04T00:58:46.808Z,19.54
2018-06-04T01:01:15.154Z,19.57
2018-06-04T01:03:44.073Z,19.57
2018-06-04T01:06:11.825Z,19.59
2018-06-04T01:08:40.149Z,19.69
2018-06-04T01:11:09.063Z,19.81
2018-06-04T01:13:36.806Z,19.82
2018-06-04T01:16:05.141Z,19.80
2018-06-04T01:18:34.058Z,19.72
2018-06-04T01:21:02.383Z,19.66
2018-06-04T01:23:30.717Z,19.55
2018-06-04T01:25:59.061Z,19.52
2018-06-04T01:28:27.400Z,19.44
2018-06-04T01:30:55.742Z,19.36
2018-06-04T01:33:24.069Z,19.32
2018-06-04T01:35:52.405Z,19.31
2018-06-04T01:38:20.157Z,19.26
2018-06-04T01:40:49.073Z,19.24
2018-06-04T01:43:17.410Z,19.19
2018-06-04T01:45:45.747Z,19.21
2018-06-04T01:48:13.513Z,19.17
2018-06-04T01:50:41.840Z,19.13
2018-06-04T01:53:10.754Z,19.12
2018-06-04T01:55:39.082Z,19.09
2018-06-04T01:58:06.834Z,19.05
2018-06-04T02:00:35.175Z,19.00
2018-06-04T02:03:04.089Z,18.96
2018-06-04T02:05:32.750Z,18.94
2018-06-04T02:08:01.092Z,18.96
2018-06-04T02:10:29.418Z,18.97
2018-06-04T02:12:57.166Z,18.96
2018-06-04T02:15:26.079Z,18.95
2018-06-04T02:17:54.748Z,18.96
2018-06-04T02:20:23.083Z,18.98
2018-06-04T02:22:51.421Z,18.97
2018-06-04T02:25:19.584Z,18.94
2018-06-04T02:27:47.508Z,18.93
2018-06-04T02:30:15.843Z,18.95
2018-06-04T02:32:44.757Z,18.95
2018-06-04T02:35:12.514Z,18.90
2018-06-04T02:37:41.425Z,18.90
2018-06-04T02:40:09.173Z,18.93
2018-06-04T02:42:38.086Z,18.88
2018-06-04T02:45:05.846Z,18.85
2018-06-04T02:47:34.176Z,18.89
2018-06-04T02:50:03.201Z,18.91
2018-06-04T02:52:30.931Z,18.91
2018-06-04T02:54:59.170Z,18.89
2018-06-04T02:57:27.775Z,18.94
2018-06-04T02:59:56.412Z,18.97
2018-06-04T03:02:24.743Z,19.04
2018-06-04T03:04:53.081Z,19.13
2018-06-04T03:07:21.423Z,19.25
2018-06-04T03:09:49.753Z,19.35
2018-06-04T03:12:18.080Z,19.36
2018-06-04T03:14:46.419Z,19.39
2018-06-04T03:17:14.757Z,19.38
2018-06-04T03:19:42.514Z,19.32
2018-06-04T03:22:10.942Z,19.31
2018-06-04T03:24:39.768Z,19.43
2018-06-04T03:27:07.517Z,19.53
2018-06-04T03:29:36.431Z,19.56
2018-06-04T03:32:04.190Z,19.56
2018-06-04T03:34:33.107Z,19.59
2018-06-04T03:37:01.462Z,19.72
2018-06-04T03:39:29.233Z,19.71
2018-06-04T03:41:58.154Z,19.75
2018-06-04T03:44:26.489Z,19.73
2018-06-04T03:46:54.841Z,19.78
2018-06-04T03:49:23.624Z,19.79
2018-06-04T03:51:52.019Z,19.80
2018-06-04T03:54:20.184Z,19.70
2018-06-04T03:56:48.107Z,19.70
2018-06-04T03:59:17.025Z,19.70
2018-06-04T04:01:45.373Z,19.69
2018-06-04T04:04:13.124Z,19.67
2018-06-04T04:06:42.031Z,19.55
2018-06-04T04:09:10.359Z,19.56
2018-06-04T04:11:38.118Z,19.58
2018-06-04T04:14:06.446Z,19.58
2018-06-04T04:16:34.773Z,19.55
2018-06-04T04:19:03.679Z,19.46
2018-06-04T04:21:32.015Z,19.44
2018-06-04T04:24:00.347Z,19.46
2018-06-04T04:26:28.099Z,19.54
2018-06-04T04:28:57.023Z,19.60
2018-06-04T04:31:25.365Z,19.65
2018-06-04T04:33:53.696Z,19.76
2018-06-04T04:36:21.451Z,19.82
2018-06-04T04:38:50.369Z,19.84
2018-06-04T04:41:18.500Z,19.85
2018-06-04T04:43:46.453Z,19.86
2018-06-04T04:46:15.531Z,19.90
2018-06-04T04:48:43.836Z,19.98
2018-06-04T04:51:12.171Z,20.03
2018-06-04T04:53:40.546Z,20.00
2018-06-04T04:56:08.303Z,19.90
2018-06-04T04:58:37.249Z,19.92
2018-06-04T05:01:05.597Z,19.91
2018-06-04T05:03:33.359Z,19.89
2018-06-04T05:06:02.274Z,19.95
2018-06-04T05:08:30.639Z,20.06
2018-06-04T05:10:58.933Z,20.15
2018-06-04T05:13:26.693Z,20.16
2018-06-04T05:15:55.631Z,20.22
2018-06-04T05:18:23.974Z,20.36
2018-06-04T05:20:52.299Z,20.46
2018-06-04T05:23:20.650Z,20.52
2018-06-04T05:25:48.975Z,20.56
2018-06-04T05:28:16.730Z,20.54
2018-06-04T05:30:45.663Z,20.62
2018-06-04T05:33:14.778Z,20.71
2018-06-04T05:35:42.329Z,20.71
2018-06-04T05:38:10.669Z,20.70
2018-06-04T05:40:39.119Z,20.72
2018-06-04T05:43:07.608Z,20.76
2018-06-04T05:45:36.042Z,20.81
2018-06-04T05:48:04.578Z,20.90
2018-06-04T05:50:32.982Z,20.98
2018-06-04T05:53:01.525Z,21.00
2018-06-04T05:55:29.906Z,20.96
2018-06-04T05:57:58.244Z,21.00
2018-06-04T06:00:26.569Z,21.11
2018-06-04T06:02:54.909Z,21.21
2018-06-04T06:05:22.663Z,21.26
2018-06-04T06:07:51.583Z,21.33
2018-06-04T06:10:20.037Z,21.41
2018-06-04T06:12:48.365Z,21.54
2018-06-04T06:15:16.703Z,21.71
2018-06-04T06:17:45.032Z,21.83
2018-06-04T06:20:13.370Z,21.92
2018-06-04T06:22:41.248Z,22.04
2018-06-04T06:25:09.520Z,22.12
2018-06-04T06:27:37.824Z,22.20
2018-06-04T06:30:06.822Z,22.28
2018-06-04T06:32:34.569Z,22.39
2018-06-04T06:35:03.573Z,22.42
2018-06-04T06:37:31.401Z,22.47
2018-06-04T06:40:00.349Z,22.57
2018-06-04T06:42:28.333Z,22.66
2018-06-04T06:44:56.466Z,22.74
2018-06-04T06:47:25.379Z,22.79
2018-06-04T06:49:53.188Z,22.84
2018-06-04T06:52:22.103Z,22.83
2018-06-04T06:54:50.705Z,22.87
2018-06-04T06:57:18.915Z,22.95
2018-06-04T06:59:48.486Z,23.04
2018-06-04T07:02:16.237Z,23.04
2018-06-04T07:04:45.148Z,23.00
2018-06-04T07:07:13.486Z,23.01
2018-06-04T07:09:41.831Z,22.99
2018-06-04T07:12:10.161Z,23.08
2018-06-04T07:14:38.742Z,23.05
2018-06-04T07:17:06.855Z,23.06
2018-06-04T07:19:36.214Z,23.18
2018-06-04T07:22:04.571Z,23.29
2018-06-04T07:24:32.903Z,23.40
2018-06-04T07:27:00.656Z,23.49
2018-06-04T07:29:29.014Z,23.50
2018-06-04T07:31:57.350Z,23.53
2018-06-04T07:34:26.267Z,23.62
2018-06-04T07:36:54.604Z,23.70
2018-06-04T07:39:22.928Z,23.79
2018-06-04T07:41:56.153Z,23.82
2018-06-04T07:44:25.139Z,23.90
2018-06-04T07:46:53.430Z,23.93
2018-06-04T07:49:21.786Z,23.94
2018-06-04T07:51:49.566Z,23.94
2018-06-04T07:54:18.486Z,23.92
2018-06-04T07:56:46.235Z,23.98
2018-06-04T07:59:14.561Z,24.02
2018-06-04T08:01:47.543Z,24.04
2018-06-04T08:04:15.113Z,24.03
2018-06-04T08:06:42.870Z,23.97
2018-06-04T08:09:11.784Z,23.95
2018-06-04T08:11:40.127Z,23.99
2018-06-04T08:14:09.094Z,24.02
2018-06-04T08:16:37.659Z,24.04
2018-06-04T08:19:06.002Z,24.06
2018-06-04T08:21:34.333Z,24.07
2018-06-04T08:24:02.710Z,24.07
2018-06-04T08:26:30.630Z,24.09
2018-06-04T08:28:59.337Z,24.05
2018-06-04T08:31:27.800Z,24.11
2018-06-04T08:33:56.110Z,24.15
2018-06-04T08:36:23.850Z,24.17
2018-06-04T08:38:52.760Z,24.14
2018-06-04T08:41:20.502Z,24.10
2018-06-04T08:43:49.424Z,24.17
2018-06-04T08:46:17.164Z,24.24
2018-06-04T08:48:45.490Z,24.32
2018-06-04T08:51:14.416Z,24.33
2018-06-04T08:53:42.414Z,24.28
2018-06-04T08:56:10.954Z,24.27
2018-06-04T08:58:39.432Z,24.31
2018-06-04T09:01:07.772Z,24.34
2018-06-04T09:03:36.127Z,24.30
2018-06-04T09:06:04.465Z,24.31
2018-06-04T09:08:32.820Z,24.30
2018-06-04T09:11:01.157Z,24.26
2018-06-04T09:13:29.513Z,24.26
2018-06-04T09:15:57.844Z,24.24
2018-06-04T09:18:25.601Z,24.19
2018-06-04T09:20:53.938Z,24.11
2018-06-04T09:23:22.292Z,24.07
2018-06-04T09:25:50.619Z,24.05
2018-06-04T09:28:19.032Z,24.05
2018-06-04T09:30:47.890Z,24.07
2018-06-04T09:33:16.216Z,24.08
2018-06-04T09:35:44.561Z,24.12
2018-06-04T09:38:12.310Z,24.07
2018-06-04T09:40:41.251Z,24.08
2018-06-04T09:43:08.997Z,24.12
2018-06-04T09:45:37.335Z,24.08
2018-06-04T09:48:05.745Z,24.10
2018-06-04T09:50:34.723Z,23.92
2018-06-04T09:53:03.104Z,24.02
2018-06-04T09:55:30.855Z,24.16
2018-06-04T09:57:59.182Z,24.26
2018-06-04T10:00:28.104Z,24.34
2018-06-04T10:02:55.853Z,24.40
2018-06-04T10:05:24.188Z,24.42
2018-06-04T10:07:53.172Z,24.40
2018-06-04T10:10:20.914Z,24.45
2018-06-04T10:12:49.804Z,24.54
2018-06-04T10:15:18.236Z,24.61
2018-06-04T10:17:46.007Z,24.67
2018-06-04T10:20:14.740Z,24.73
2018-06-04T10:22:43.270Z,24.72
2018-06-04T10:25:11.620Z,24.63
2018-06-04T10:27:39.358Z,24.45
2018-06-04T10:30:08.325Z,24.41
2018-06-04T10:32:36.680Z,24.36
2018-06-04T10:35:05.011Z,24.35
2018-06-04T10:37:33.353Z,24.35
2018-06-04T10:40:01.763Z,24.29
2018-06-04T10:42:29.580Z,24.34
2018-06-04T10:44:58.479Z,24.47
2018-06-04T10:47:26.801Z,24.62
2018-06-04T10:49:55.224Z,24.56
2018-06-04T10:52:23.642Z,24.58
2018-06-04T10:54:51.972Z,24.62
2018-06-04T10:57:20.314Z,24.61
2018-06-04T10:59:48.659Z,24.68
2018-06-04T11:02:16.985Z,24.69
2018-06-04T11:04:45.304Z,24.67
2018-06-04T11:07:13.059Z,24.69
2018-06-04T11:09:41.964Z,24.58
2018-06-04T11:12:10.293Z,24.69
2018-06-04T11:14:38.639Z,24.81
2018-06-04T11:17:06.993Z,24.76
2018-06-04T11:19:35.357Z,24.82
2018-06-04T11:22:03.644Z,24.85
2018-06-04T11:24:31.423Z,24.79
2018-06-04T11:27:00.286Z,24.92
2018-06-04T11:29:28.603Z,24.99
2018-06-04T11:31:56.352Z,25.19
2018-06-04T11:34:24.691Z,25.27
2018-06-04T11:36:53.591Z,25.33
2018-06-04T11:39:21.897Z,25.40
2018-06-04T11:41:50.293Z,25.30
2018-06-04T11:44:18.651Z,25.30
2018-06-04T11:46:46.985Z,25.35
2018-06-04T11:49:15.376Z,25.46
2018-06-04T11:51:43.115Z,25.43
2018-06-04T11:54:12.034Z,25.47
2018-06-04T11:56:39.904Z,25.48
2018-06-04T11:59:08.808Z,25.59
2018-06-04T12:01:37.127Z,25.75
2018-06-04T12:04:05.458Z,25.83
2018-06-04T12:06:33.777Z,25.81
2018-06-04T12:09:01.527Z,25.82
2018-06-04T12:11:30.465Z,25.77
2018-06-04T12:13:58.778Z,25.60
2018-06-04T12:16:27.103Z,25.64
2018-06-04T12:18:55.429Z,25.66
2018-06-04T12:21:23.764Z,25.81
2018-06-04T12:23:52.082Z,25.95
2018-06-04T12:26:20.774Z,25.83
2018-06-04T12:28:48.517Z,25.93
2018-06-04T12:31:17.416Z,25.84
2018-06-04T12:33:45.766Z,25.71
2018-06-04T12:36:14.100Z,25.64
2018-06-04T12:38:41.859Z,25.85
2018-06-04T12:41:10.772Z,26.18
2018-06-04T12:43:39.088Z,26.28
2018-06-04T12:46:07.425Z,26.37
2018-06-04T12:48:35.777Z,26.51
2018-06-04T12:51:03.526Z,26.59
2018-06-04T12:53:32.433Z,26.73
2018-06-04T12:56:01.378Z,26.80
2018-06-04T12:58:28.537Z,26.73
2018-06-04T13:00:57.447Z,26.70
2018-06-04T13:03:25.231Z,26.74
2018-06-04T13:05:54.167Z,26.84
2018-06-04T13:08:21.913Z,26.84
2018-06-04T13:10:50.820Z,26.76
2018-06-04T13:13:18.565Z,26.63
2018-06-04T13:15:47.779Z,26.47
2018-06-04T13:18:15.526Z,26.65
2018-06-04T13:20:44.444Z,26.85
2018-06-04T13:23:12.776Z,27.01
2018-06-04T13:25:41.108Z,27.33
2018-06-04T13:28:09.460Z,27.38
2018-06-04T13:30:37.202Z,27.29
2018-06-04T13:33:05.571Z,27.31
2018-06-04T13:35:34.474Z,27.20
2018-06-04T13:38:02.851Z,27.22
2018-06-04T13:40:30.614Z,27.41
2018-06-04T13:42:59.546Z,27.71
2018-06-04T13:45:27.894Z,27.59
2018-06-04T13:47:55.647Z,27.66
2018-06-04T13:50:24.594Z,27.87
2018-06-04T13:52:52.884Z,27.99
2018-06-04T13:55:20.632Z,28.23
2018-06-04T13:57:49.563Z,28.22
2018-06-04T14:00:17.888Z,28.06
2018-06-04T14:02:46.489Z,27.81
2018-06-04T14:05:14.980Z,27.69
2018-06-04T14:07:43.306Z,27.84
2018-06-04T14:10:11.776Z,28.00
2018-06-04T14:12:40.388Z,28.13
2018-06-04T14:15:08.748Z,28.47
2018-06-04T14:17:37.082Z,28.64
2018-06-04T14:20:05.404Z,28.27
2018-06-04T14:22:33.158Z,28.00
2018-06-04T14:25:02.074Z,28.11
2018-06-04T14:27:29.843Z,28.20
2018-06-04T14:29:58.727Z,28.21
2018-06-04T14:32:27.042Z,28.32
2018-06-04T14:34:55.374Z,28.67
2018-06-04T14:37:23.740Z,29.02
2018-06-04T14:39:51.446Z,29.16
2018-06-04T14:42:20.580Z,29.26
2018-06-04T14:44:48.104Z,29.37
2018-06-04T14:47:17.006Z,29.62
2018-06-04T14:49:46.454Z,29.88
2018-06-04T14:52:14.781Z,29.94
2018-06-04T14:54:42.535Z,29.74
2018-06-04T14:57:11.521Z,29.24
2018-06-04T14:59:39.971Z,29.07
2018-06-04T15:02:09.995Z,29.13
2018-06-04T15:04:36.092Z,29.05
2018-06-04T15:07:04.987Z,28.62
2018-06-04T15:09:33.342Z,28.38
2018-06-04T15:12:01.631Z,27.75
2018-06-04T15:14:29.956Z,27.76
2018-06-04T15:16:58.280Z,27.81
2018-06-04T15:19:26.592Z,27.96
2018-06-04T15:21:54.930Z,28.12
2018-06-04T15:24:23.295Z,28.18
2018-06-04T15:26:51.666Z,28.19
2018-06-04T15:29:19.987Z,28.26
2018-06-04T15:31:48.624Z,28.16
2018-06-04T15:34:17.862Z,28.30
2018-06-04T15:36:47.104Z,28.34
2018-06-04T15:39:15.527Z,28.10
2018-06-04T15:41:43.891Z,27.60
2018-06-04T15:44:12.250Z,27.17
2018-06-04T15:46:40.634Z,26.97
2018-06-04T15:49:09.022Z,27.22
2018-06-04T15:51:37.415Z,27.47
2018-06-04T15:54:06.107Z,27.13
2018-06-04T15:56:34.479Z,26.56
2018-06-04T15:59:02.852Z,26.34
2018-06-04T16:01:31.223Z,26.55
2018-06-04T16:03:59.590Z,26.79
2018-06-04T16:06:28.000Z,26.94
2018-06-04T16:08:56.392Z,26.83
2018-06-04T16:11:24.772Z,27.21
2018-06-04T16:13:53.142Z,27.36
2018-06-04T16:16:21.537Z,27.17
2018-06-04T16:18:49.998Z,27.18
2018-06-04T16:21:18.381Z,27.27
2018-06-04T16:23:47.045Z,27.06
2018-06-04T16:26:15.417Z,26.99
2018-06-04T16:28:44.464Z,27.31
2018-06-04T16:31:12.828Z,27.66
2018-06-04T16:33:41.188Z,27.67
2018-06-04T16:36:09.822Z,27.64
2018-06-04T16:38:38.187Z,27.54
2018-06-04T16:41:06.922Z,27.42
2018-06-04T16:43:35.275Z,27.18
2018-06-04T16:46:03.637Z,26.86
2018-06-04T16:48:32.001Z,26.80
2018-06-04T16:51:00.376Z,26.58
2018-06-04T16:53:28.722Z,26.45
2018-06-04T16:55:57.097Z,26.25
2018-06-04T16:58:25.539Z,25.80
2018-06-04T17:00:53.918Z,25.35
2018-06-04T17:03:22.291Z,25.19
2018-06-04T17:05:50.664Z,25.10
2018-06-04T17:08:19.180Z,24.90
2018-06-04T17:10:47.729Z,24.73
2018-06-04T17:13:15.863Z,24.76
2018-06-04T17:15:44.232Z,24.80
2018-06-04T17:18:12.604Z,24.77
2018-06-04T17:20:40.972Z,24.71
2018-06-04T17:23:09.364Z,24.72
2018-06-04T17:25:37.707Z,24.71
2018-06-04T17:28:06.066Z,24.76
2018-06-04T17:30:34.434Z,24.70
2018-06-04T17:33:03.808Z,24.45
2018-06-04T17:35:31.499Z,24.37
2018-06-04T17:38:00.145Z,24.25
2018-06-04T17:40:28.515Z,23.92
2018-06-04T17:42:56.880Z,23.76
2018-06-04T17:45:25.259Z,23.70
2018-06-04T17:47:53.631Z,23.49
2018-06-04T17:50:22.009Z,23.43
2018-06-04T17:52:50.379Z,23.46
2018-06-04T17:55:18.729Z,23.46
2018-06-04T17:57:47.099Z,23.44
2018-06-04T18:00:15.503Z,23.41
2018-06-04T18:02:43.898Z,23.36
2018-06-04T18:05:12.284Z,23.32
2018-06-04T18:07:40.768Z,23.21
2018-06-04T18:10:09.267Z,23.12
2018-06-04T18:12:37.671Z,23.08
2018-06-04T18:15:06.107Z,23.05
2018-06-04T18:17:34.449Z,23.00
2018-06-04T18:20:02.872Z,22.68
2018-06-04T18:22:31.329Z,22.31
2018-06-04T18:24:59.707Z,22.08
2018-06-04T18:27:28.069Z,21.68
2018-06-04T18:29:56.468Z,21.45
2018-06-04T18:32:24.900Z,21.34
2018-06-04T18:34:53.273Z,21.24
2018-06-04T18:37:21.668Z,21.18
2018-06-04T18:39:50.040Z,21.10
2018-06-04T18:42:18.418Z,21.01
2018-06-04T18:44:46.826Z,20.94
2018-06-04T18:47:15.188Z,20.82
2018-06-04T18:49:43.603Z,20.77
2018-06-04T18:52:11.971Z,20.67
2018-06-04T18:54:40.330Z,20.75
2018-06-04T18:57:08.706Z,20.71
2018-06-04T18:59:37.352Z,20.65
2018-06-04T19:02:05.706Z,20.65
2018-06-04T19:04:34.070Z,20.64
2018-06-04T19:07:02.473Z,20.55
2018-06-04T19:09:30.935Z,20.49
2018-06-04T19:11:59.359Z,20.43
2018-06-04T19:14:27.722Z,20.37
2018-06-04T19:16:56.076Z,20.36
2018-06-04T19:19:24.442Z,20.37
2018-06-04T19:21:53.369Z,20.43
2018-06-04T19:24:21.740Z,20.39
2018-06-04T19:26:50.115Z,20.34
2018-06-04T19:29:18.481Z,20.33
2018-06-04T19:31:46.897Z,20.30
2018-06-04T19:34:15.258Z,20.19
2018-06-04T19:36:43.642Z,20.16
2018-06-04T19:39:12.109Z,20.16
2018-06-04T19:41:40.457Z,20.18
2018-06-04T19:44:08.826Z,20.09
2018-06-04T19:46:37.197Z,20.01
2018-06-04T19:49:05.588Z,19.92
2018-06-04T19:51:33.992Z,19.81
2018-06-04T19:54:02.333Z,19.78
2018-06-04T19:56:30.716Z,19.81
2018-06-04T19:58:59.274Z,19.80
2018-06-04T20:01:27.678Z,19.88
2018-06-04T20:03:56.073Z,19.88
2018-06-04T20:06:24.453Z,19.86
2018-06-04T20:08:52.819Z,19.85
2018-06-04T20:11:21.214Z,19.80
2018-06-04T20:13:49.746Z,19.74
2018-06-04T20:16:18.133Z,19.75
2018-06-04T20:18:46.512Z,19.71
2018-06-04T20:21:14.924Z,19.64
2018-06-04T20:23:43.297Z,19.55
2018-06-04T20:26:11.831Z,19.50
2018-06-04T20:28:40.203Z,19.43
2018-06-04T20:31:08.610Z,19.45
2018-06-04T20:33:36.980Z,19.41
2018-06-04T20:36:05.357Z,19.36
2018-06-04T20:38:34.029Z,19.30
2018-06-04T20:41:02.459Z,19.23
2018-06-04T20:43:30.837Z,19.26
2018-06-04T20:45:59.248Z,19.29
2018-06-04T20:48:27.703Z,19.22
2018-06-04T20:50:56.159Z,19.23
2018-06-04T20:53:24.536Z,19.27
2018-06-04T20:55:53.254Z,19.26
2018-06-04T20:58:21.633Z,19.24
2018-06-04T21:00:50.091Z,19.24
2018-06-04T21:03:19.006Z,19.21
2018-06-04T21:05:47.442Z,19.19
2018-06-04T21:08:15.835Z,19.18
2018-06-04T21:10:44.208Z,19.13
2018-06-04T21:13:12.591Z,19.09
2018-06-04T21:15:40.995Z,19.08
2018-06-04T21:18:09.496Z,19.02
2018-06-04T21:20:37.877Z,19.04
2018-06-04T21:23:06.260Z,19.06
2018-06-04T21:25:34.871Z,19.03
2018-06-04T21:28:03.023Z,19.04
2018-06-04T21:30:31.400Z,19.01
2018-06-04T21:32:59.776Z,18.99
2018-06-04T21:35:28.177Z,19.01
2018-06-04T21:37:56.572Z,19.02
2018-06-04T21:40:24.957Z,19.06
2018-06-04T21:42:53.335Z,19.18
2018-06-04T21:45:21.713Z,19.27
2018-06-04T21:47:50.092Z,19.31
2018-06-04T21:50:18.494Z,19.38
2018-06-04T21:52:46.870Z,19.39
2018-06-04T21:55:15.261Z,19.52
2018-06-04T21:57:43.643Z,19.69
2018-06-04T22:00:12.252Z,19.80
2018-06-04T22:02:40.407Z,19.80
2018-06-04T22:05:08.789Z,19.83
2018-06-04T22:07:37.183Z,19.80
2018-06-04T22:10:05.561Z,19.84
2018-06-04T22:12:33.941Z,19.73
2018-06-04T22:15:02.315Z,19.69
2018-06-04T22:17:30.741Z,19.54
2018-06-04T22:19:59.124Z,19.51
2018-06-04T22:22:27.514Z,19.59
2018-06-04T22:24:55.896Z,19.68
2018-06-04T22:27:24.294Z,19.70
2018-06-04T22:29:52.668Z,19.66
2018-06-04T22:32:21.047Z,19.62
2018-06-04T22:34:49.431Z,19.64
2018-06-04T22:37:17.859Z,19.72
2018-06-04T22:39:46.289Z,19.78
2018-06-04T22:42:14.678Z,19.79
2018-06-04T22:44:43.055Z,19.81
2018-06-04T22:47:11.431Z,19.78
2018-06-04T22:49:40.101Z,19.79
2018-06-04T22:52:08.521Z,19.82
2018-06-04T22:54:36.904Z,19.87
2018-06-04T22:57:05.287Z,19.99
2018-06-04T22:59:33.664Z,20.05
2018-06-04T23:02:02.041Z,20.11
2018-06-04T23:04:30.653Z,20.23
2018-06-04T23:06:58.793Z,20.24
2018-06-04T23:09:27.169Z,20.13
2018-06-04T23:11:55.540Z,20.16
2018-06-04T23:14:23.906Z,20.20
2018-06-04T23:16:52.298Z,20.30
2018-06-04T23:19:20.736Z,20.33
2018-06-04T23:21:49.110Z,20.23
2018-06-04T23:24:17.499Z,20.18
2018-06-04T23:26:45.875Z,20.22
2018-06-04T23:29:14.251Z,20.31
2018-06-04T23:31:42.624Z,20.35
2018-06-04T23:34:10.990Z,20.39
2018-06-04T23:36:39.371Z,20.41
2018-06-04T23:39:07.745Z,20.43
2018-06-04T23:41:36.119Z,20.45
2018-06-04T23:44:04.874Z,20.47
2018-06-04T23:46:33.244Z,20.49
2018-06-04T23:49:02.242Z,20.51
2018-06-04T23:51:30.619Z,20.55
2018-06-04T23:53:58.994Z,20.58
2018-06-04T23:56:27.367Z,20.59
2018-06-04T23:58:55.743Z,20.51
